sensor_id;sensor_type;location;lat;lon;timestamp;P1;durP1;ratioP1;P2;durP2;ratioP2
10687;SDS011;5392;42.688;23.298;2023-08-06T00:01:25;1.85;;;1.75;;
10687;SDS011;5392;42.688;23.298;2023-08-06T00:03:52;2.70;;;2.13;;
10687;SDS011;5392;42.688;23.298;2023-08-06T00:06:19;4.72;;;2.30;;
10687;SDS011;5392;42.688;23.298;2023-08-06T00:08:46;3.13;;;2.33;;
10687;SDS011;5392;42.688;23.298;2023-08-06T00:11:12;1.75;;;1.65;;
10687;SDS011;5392;42.688;23.298;2023-08-06T00:13:39;1.75;;;1.48;;
10687;SDS011;5392;42.688;23.298;2023-08-06T00:16:10;1.63;;;1.52;;
10687;SDS011;5392;42.688;23.298;2023-08-06T00:18:38;3.70;;;1.27;;
10687;SDS011;5392;42.688;23.298;2023-08-06T00:21:06;2.40;;;1.45;;
10687;SDS011;5392;42.688;23.298;2023-08-06T00:23:32;2.03;;;1.33;;
10687;SDS011;5392;42.688;23.298;2023-08-06T00:25:59;1.40;;;1.27;;
10687;SDS011;5392;42.688;23.298;2023-08-06T00:28:26;1.23;;;1.20;;
10687;SDS011;5392;42.688;23.298;2023-08-06T00:30:53;2.85;;;1.40;;
10687;SDS011;5392;42.688;23.298;2023-08-06T00:33:21;1.23;;;1.13;;
10687;SDS011;5392;42.688;23.298;2023-08-06T00:35:51;2.47;;;1.55;;
10687;SDS011;5392;42.688;23.298;2023-08-06T00:38:18;1.90;;;1.40;;
10687;SDS011;5392;42.688;23.298;2023-08-06T00:40:44;2.05;;;1.20;;
10687;SDS011;5392;42.688;23.298;2023-08-06T00:43:11;1.15;;;1.08;;
10687;SDS011;5392;42.688;23.298;2023-08-06T00:45:38;2.03;;;1.20;;
10687;SDS011;5392;42.688;23.298;2023-08-06T00:48:05;1.20;;;1.20;;
10687;SDS011;5392;42.688;23.298;2023-08-06T00:50:33;1.60;;;1.27;;
10687;SDS011;5392;42.688;23.298;2023-08-06T00:52:59;2.45;;;1.55;;
10687;SDS011;5392;42.688;23.298;2023-08-06T00:55:27;1.98;;;1.88;;
10687;SDS011;5392;42.688;23.298;2023-08-06T00:57:54;1.85;;;1.85;;
10687;SDS011;5392;42.688;23.298;2023-08-06T01:00:22;2.00;;;1.90;;
10687;SDS011;5392;42.688;23.298;2023-08-06T01:02:51;1.80;;;1.80;;
10687;SDS011;5392;42.688;23.298;2023-08-06T01:05:20;2.67;;;1.80;;
10687;SDS011;5392;42.688;23.298;2023-08-06T01:13:19;1.98;;;1.58;;
10687;SDS011;5392;42.688;23.298;2023-08-06T01:15:55;2.05;;;2.00;;
10687;SDS011;5392;42.688;23.298;2023-08-06T01:18:23;2.13;;;1.77;;
10687;SDS011;5392;42.688;23.298;2023-08-06T01:20:50;2.92;;;1.98;;
10687;SDS011;5392;42.688;23.298;2023-08-06T01:23:17;2.17;;;2.00;;
10687;SDS011;5392;42.688;23.298;2023-08-06T01:31:33;2.53;;;2.42;;
10687;SDS011;5392;42.688;23.298;2023-08-06T01:34:04;2.40;;;2.30;;
10687;SDS011;5392;42.688;23.298;2023-08-06T01:36:35;3.08;;;2.70;;
10687;SDS011;5392;42.688;23.298;2023-08-06T01:39:02;3.63;;;3.35;;
10687;SDS011;5392;42.688;23.298;2023-08-06T01:41:31;3.70;;;3.42;;
10687;SDS011;5392;42.688;23.298;2023-08-06T01:43:58;3.55;;;3.45;;
10687;SDS011;5392;42.688;23.298;2023-08-06T01:46:24;3.72;;;3.38;;
10687;SDS011;5392;42.688;23.298;2023-08-06T01:48:51;3.72;;;3.33;;
10687;SDS011;5392;42.688;23.298;2023-08-06T01:51:18;3.50;;;3.28;;
10687;SDS011;5392;42.688;23.298;2023-08-06T01:53:44;4.35;;;2.60;;
10687;SDS011;5392;42.688;23.298;2023-08-06T01:56:11;3.38;;;2.28;;
10687;SDS011;5392;42.688;23.298;2023-08-06T01:58:38;2.40;;;2.30;;
10687;SDS011;5392;42.688;23.298;2023-08-06T02:01:05;3.72;;;2.70;;
10687;SDS011;5392;42.688;23.298;2023-08-06T02:03:32;2.50;;;2.30;;
10687;SDS011;5392;42.688;23.298;2023-08-06T02:05:59;3.13;;;2.50;;
10687;SDS011;5392;42.688;23.298;2023-08-06T02:08:26;3.05;;;2.20;;
10687;SDS011;5392;42.688;23.298;2023-08-06T02:10:53;2.33;;;2.22;;
10687;SDS011;5392;42.688;23.298;2023-08-06T02:13:20;3.15;;;1.65;;
10687;SDS011;5392;42.688;23.298;2023-08-06T02:15:47;2.25;;;2.05;;
10687;SDS011;5392;42.688;23.298;2023-08-06T02:18:14;2.00;;;1.90;;
10687;SDS011;5392;42.688;23.298;2023-08-06T02:20:41;2.42;;;2.33;;
10687;SDS011;5392;42.688;23.298;2023-08-06T02:23:08;2.75;;;2.28;;
10687;SDS011;5392;42.688;23.298;2023-08-06T02:25:35;3.22;;;2.88;;
10687;SDS011;5392;42.688;23.298;2023-08-06T02:28:02;8.95;;;3.80;;
10687;SDS011;5392;42.688;23.298;2023-08-06T02:30:29;7.65;;;4.20;;
10687;SDS011;5392;42.688;23.298;2023-08-06T02:32:56;3.55;;;2.40;;
10687;SDS011;5392;42.688;23.298;2023-08-06T02:35:23;3.47;;;3.13;;
10687;SDS011;5392;42.688;23.298;2023-08-06T02:37:50;4.65;;;3.10;;
10687;SDS011;5392;42.688;23.298;2023-08-06T02:40:17;3.75;;;3.38;;
10687;SDS011;5392;42.688;23.298;2023-08-06T02:42:43;3.88;;;3.53;;
10687;SDS011;5392;42.688;23.298;2023-08-06T02:45:10;2.35;;;2.25;;
10687;SDS011;5392;42.688;23.298;2023-08-06T02:47:37;2.50;;;2.40;;
10687;SDS011;5392;42.688;23.298;2023-08-06T02:50:04;3.75;;;2.00;;
10687;SDS011;5392;42.688;23.298;2023-08-06T02:52:31;1.90;;;1.70;;
10687;SDS011;5392;42.688;23.298;2023-08-06T02:54:58;1.95;;;1.80;;
10687;SDS011;5392;42.688;23.298;2023-08-06T02:57:26;3.38;;;2.47;;
10687;SDS011;5392;42.688;23.298;2023-08-06T02:59:53;2.92;;;2.65;;
10687;SDS011;5392;42.688;23.298;2023-08-06T03:02:20;4.30;;;2.55;;
10687;SDS011;5392;42.688;23.298;2023-08-06T03:04:46;4.47;;;2.63;;
10687;SDS011;5392;42.688;23.298;2023-08-06T03:07:13;4.22;;;2.63;;
10687;SDS011;5392;42.688;23.298;2023-08-06T03:09:40;1.73;;;1.73;;
10687;SDS011;5392;42.688;23.298;2023-08-06T03:12:07;1.60;;;1.48;;
10687;SDS011;5392;42.688;23.298;2023-08-06T03:14:34;1.90;;;1.80;;
10687;SDS011;5392;42.688;23.298;2023-08-06T03:17:00;2.15;;;2.05;;
10687;SDS011;5392;42.688;23.298;2023-08-06T03:19:27;6.97;;;3.25;;
10687;SDS011;5392;42.688;23.298;2023-08-06T03:21:54;2.53;;;2.33;;
10687;SDS011;5392;42.688;23.298;2023-08-06T03:24:21;2.35;;;2.25;;
10687;SDS011;5392;42.688;23.298;2023-08-06T03:26:48;1.17;;;1.17;;
10687;SDS011;5392;42.688;23.298;2023-08-06T03:29:14;2.20;;;2.00;;
10687;SDS011;5392;42.688;23.298;2023-08-06T03:31:41;2.83;;;2.63;;
10687;SDS011;5392;42.688;23.298;2023-08-06T03:34:08;2.50;;;2.30;;
10687;SDS011;5392;42.688;23.298;2023-08-06T03:36:34;2.67;;;1.88;;
10687;SDS011;5392;42.688;23.298;2023-08-06T03:39:01;1.90;;;1.80;;
10687;SDS011;5392;42.688;23.298;2023-08-06T03:41:28;2.03;;;1.92;;
10687;SDS011;5392;42.688;23.298;2023-08-06T03:43:55;1.10;;;1.02;;
10687;SDS011;5392;42.688;23.298;2023-08-06T03:46:21;2.00;;;1.52;;
10687;SDS011;5392;42.688;23.298;2023-08-06T03:48:48;1.27;;;1.27;;
10687;SDS011;5392;42.688;23.298;2023-08-06T03:51:15;2.05;;;0.82;;
10687;SDS011;5392;42.688;23.298;2023-08-06T03:53:42;1.20;;;1.20;;
10687;SDS011;5392;42.688;23.298;2023-08-06T03:56:08;1.40;;;0.90;;
10687;SDS011;5392;42.688;23.298;2023-08-06T03:58:35;1.38;;;1.20;;
10687;SDS011;5392;42.688;23.298;2023-08-06T04:01:02;1.08;;;1.08;;
10687;SDS011;5392;42.688;23.298;2023-08-06T04:03:30;1.85;;;1.33;;
10687;SDS011;5392;42.688;23.298;2023-08-06T04:05:57;1.65;;;1.55;;
10687;SDS011;5392;42.688;23.298;2023-08-06T04:08:23;2.08;;;2.00;;
10687;SDS011;5392;42.688;23.298;2023-08-06T04:10:53;2.60;;;2.42;;
10687;SDS011;5392;42.688;23.298;2023-08-06T04:13:20;2.47;;;2.28;;
10687;SDS011;5392;42.688;23.298;2023-08-06T04:15:48;2.70;;;2.58;;
10687;SDS011;5392;42.688;23.298;2023-08-06T04:18:14;4.25;;;2.80;;
10687;SDS011;5392;42.688;23.298;2023-08-06T04:20:45;3.78;;;2.53;;
10687;SDS011;5392;42.688;23.298;2023-08-06T04:23:12;3.42;;;3.22;;
10687;SDS011;5392;42.688;23.298;2023-08-06T04:25:39;3.90;;;3.70;;
10687;SDS011;5392;42.688;23.298;2023-08-06T04:28:06;4.00;;;3.83;;
10687;SDS011;5392;42.688;23.298;2023-08-06T04:30:34;3.08;;;2.85;;
10687;SDS011;5392;42.688;23.298;2023-08-06T04:33:00;2.90;;;2.70;;
10687;SDS011;5392;42.688;23.298;2023-08-06T04:35:27;3.63;;;3.28;;
10687;SDS011;5392;42.688;23.298;2023-08-06T04:37:54;2.90;;;2.80;;
10687;SDS011;5392;42.688;23.298;2023-08-06T04:40:21;2.38;;;2.28;;
10687;SDS011;5392;42.688;23.298;2023-08-06T04:42:48;5.70;;;2.47;;
10687;SDS011;5392;42.688;23.298;2023-08-06T04:45:14;4.78;;;3.20;;
10687;SDS011;5392;42.688;23.298;2023-08-06T04:47:41;3.78;;;3.40;;
10687;SDS011;5392;42.688;23.298;2023-08-06T04:50:08;3.50;;;3.20;;
10687;SDS011;5392;42.688;23.298;2023-08-06T04:52:35;3.53;;;3.42;;
10687;SDS011;5392;42.688;23.298;2023-08-06T04:55:04;2.70;;;2.60;;
10687;SDS011;5392;42.688;23.298;2023-08-06T04:57:32;4.63;;;2.35;;
10687;SDS011;5392;42.688;23.298;2023-08-06T04:59:59;2.10;;;1.98;;
10687;SDS011;5392;42.688;23.298;2023-08-06T05:02:26;1.67;;;1.58;;
10687;SDS011;5392;42.688;23.298;2023-08-06T05:04:52;1.63;;;1.23;;
10687;SDS011;5392;42.688;23.298;2023-08-06T05:07:19;1.80;;;1.05;;
10687;SDS011;5392;42.688;23.298;2023-08-06T05:09:46;1.02;;;0.70;;
10687;SDS011;5392;42.688;23.298;2023-08-06T05:12:13;1.65;;;0.60;;
10687;SDS011;5392;42.688;23.298;2023-08-06T05:14:39;0.57;;;0.57;;
10687;SDS011;5392;42.688;23.298;2023-08-06T05:17:06;0.70;;;0.70;;
10687;SDS011;5392;42.688;23.298;2023-08-06T05:19:33;1.20;;;0.50;;
10687;SDS011;5392;42.688;23.298;2023-08-06T05:21:59;0.85;;;0.60;;
10687;SDS011;5392;42.688;23.298;2023-08-06T05:24:27;0.80;;;0.80;;
10687;SDS011;5392;42.688;23.298;2023-08-06T05:26:54;0.98;;;0.98;;
10687;SDS011;5392;42.688;23.298;2023-08-06T05:29:21;1.63;;;1.63;;
10687;SDS011;5392;42.688;23.298;2023-08-06T05:31:47;2.30;;;2.08;;
10687;SDS011;5392;42.688;23.298;2023-08-06T05:34:14;3.00;;;2.88;;
10687;SDS011;5392;42.688;23.298;2023-08-06T05:36:41;5.53;;;5.15;;
10687;SDS011;5392;42.688;23.298;2023-08-06T05:39:08;5.18;;;4.88;;
10687;SDS011;5392;42.688;23.298;2023-08-06T05:41:35;4.78;;;4.47;;
10687;SDS011;5392;42.688;23.298;2023-08-06T05:44:01;3.88;;;3.72;;
10687;SDS011;5392;42.688;23.298;2023-08-06T05:46:29;2.50;;;2.40;;
10687;SDS011;5392;42.688;23.298;2023-08-06T05:48:57;1.50;;;1.30;;
10687;SDS011;5392;42.688;23.298;2023-08-06T05:51:25;5.28;;;1.38;;
10687;SDS011;5392;42.688;23.298;2023-08-06T05:53:52;0.75;;;0.60;;
10687;SDS011;5392;42.688;23.298;2023-08-06T05:56:19;0.50;;;0.50;;
10687;SDS011;5392;42.688;23.298;2023-08-06T05:58:46;2.65;;;0.70;;
10687;SDS011;5392;42.688;23.298;2023-08-06T06:01:13;0.85;;;0.40;;
10687;SDS011;5392;42.688;23.298;2023-08-06T06:03:40;0.55;;;0.30;;
10687;SDS011;5392;42.688;23.298;2023-08-06T06:06:07;4.63;;;2.38;;
10687;SDS011;5392;42.688;23.298;2023-08-06T06:08:34;1.40;;;1.30;;
10687;SDS011;5392;42.688;23.298;2023-08-06T06:11:01;0.90;;;0.82;;
10687;SDS011;5392;42.688;23.298;2023-08-06T06:13:28;2.78;;;2.55;;
10687;SDS011;5392;42.688;23.298;2023-08-06T06:15:55;2.47;;;2.05;;
10687;SDS011;5392;42.688;23.298;2023-08-06T06:18:22;3.22;;;0.88;;
10687;SDS011;5392;42.688;23.298;2023-08-06T06:20:49;1.30;;;0.82;;
10687;SDS011;5392;42.688;23.298;2023-08-06T06:23:16;1.33;;;0.30;;
10687;SDS011;5392;42.688;23.298;2023-08-06T06:25:43;1.25;;;0.40;;
10687;SDS011;5392;42.688;23.298;2023-08-06T06:28:13;1.75;;;0.40;;
10687;SDS011;5392;42.688;23.298;2023-08-06T06:30:42;1.73;;;0.30;;
10687;SDS011;5392;42.688;23.298;2023-08-06T06:33:09;0.50;;;0.30;;
10687;SDS011;5392;42.688;23.298;2023-08-06T06:35:36;1.10;;;0.40;;
10687;SDS011;5392;42.688;23.298;2023-08-06T06:38:03;2.30;;;0.40;;
10687;SDS011;5392;42.688;23.298;2023-08-06T06:40:30;0.90;;;0.30;;
10687;SDS011;5392;42.688;23.298;2023-08-06T06:42:57;3.20;;;0.40;;
10687;SDS011;5392;42.688;23.298;2023-08-06T06:45:23;1.75;;;0.30;;
10687;SDS011;5392;42.688;23.298;2023-08-06T06:47:50;3.13;;;0.47;;
10687;SDS011;5392;42.688;23.298;2023-08-06T06:50:17;0.80;;;0.40;;
10687;SDS011;5392;42.688;23.298;2023-08-06T06:52:44;0.40;;;0.40;;
10687;SDS011;5392;42.688;23.298;2023-08-06T06:55:10;0.80;;;0.50;;
10687;SDS011;5392;42.688;23.298;2023-08-06T06:57:37;1.48;;;0.50;;
10687;SDS011;5392;42.688;23.298;2023-08-06T07:00:04;1.13;;;0.50;;
10687;SDS011;5392;42.688;23.298;2023-08-06T07:02:32;2.22;;;0.50;;
10687;SDS011;5392;42.688;23.298;2023-08-06T07:04:59;0.88;;;0.47;;
10687;SDS011;5392;42.688;23.298;2023-08-06T07:07:25;0.80;;;0.55;;
10687;SDS011;5392;42.688;23.298;2023-08-06T07:09:52;1.00;;;0.50;;
10687;SDS011;5392;42.688;23.298;2023-08-06T07:12:19;5.47;;;0.45;;
10687;SDS011;5392;42.688;23.298;2023-08-06T07:14:45;0.40;;;0.40;;
10687;SDS011;5392;42.688;23.298;2023-08-06T07:17:12;0.50;;;0.50;;
10687;SDS011;5392;42.688;23.298;2023-08-06T07:19:39;2.50;;;0.40;;
10687;SDS011;5392;42.688;23.298;2023-08-06T07:22:06;0.90;;;0.50;;
10687;SDS011;5392;42.688;23.298;2023-08-06T07:24:33;1.42;;;0.50;;
10687;SDS011;5392;42.688;23.298;2023-08-06T07:27:00;0.40;;;0.40;;
10687;SDS011;5392;42.688;23.298;2023-08-06T07:29:27;2.88;;;0.40;;
10687;SDS011;5392;42.688;23.298;2023-08-06T07:31:54;2.08;;;0.60;;
10687;SDS011;5392;42.688;23.298;2023-08-06T07:34:21;2.67;;;0.50;;
10687;SDS011;5392;42.688;23.298;2023-08-06T07:36:48;3.05;;;0.65;;
10687;SDS011;5392;42.688;23.298;2023-08-06T07:39:15;0.45;;;0.40;;
10687;SDS011;5392;42.688;23.298;2023-08-06T07:41:43;0.40;;;0.40;;
10687;SDS011;5392;42.688;23.298;2023-08-06T07:44:12;0.40;;;0.40;;
10687;SDS011;5392;42.688;23.298;2023-08-06T07:46:38;0.50;;;0.50;;
10687;SDS011;5392;42.688;23.298;2023-08-06T07:49:05;1.92;;;0.52;;
10687;SDS011;5392;42.688;23.298;2023-08-06T07:51:32;2.45;;;0.50;;
10687;SDS011;5392;42.688;23.298;2023-08-06T07:53:59;1.25;;;0.50;;
10687;SDS011;5392;42.688;23.298;2023-08-06T07:56:25;1.00;;;0.40;;
10687;SDS011;5392;42.688;23.298;2023-08-06T07:58:52;0.50;;;0.50;;
10687;SDS011;5392;42.688;23.298;2023-08-06T08:01:19;0.50;;;0.50;;
10687;SDS011;5392;42.688;23.298;2023-08-06T08:03:45;0.93;;;0.40;;
10687;SDS011;5392;42.688;23.298;2023-08-06T08:06:12;0.40;;;0.40;;
10687;SDS011;5392;42.688;23.298;2023-08-06T08:08:39;1.00;;;0.88;;
10687;SDS011;5392;42.688;23.298;2023-08-06T08:11:06;0.60;;;0.60;;
10687;SDS011;5392;42.688;23.298;2023-08-06T08:13:33;0.40;;;0.40;;
10687;SDS011;5392;42.688;23.298;2023-08-06T08:16:00;1.02;;;0.40;;
10687;SDS011;5392;42.688;23.298;2023-08-06T08:18:27;1.38;;;0.50;;
10687;SDS011;5392;42.688;23.298;2023-08-06T08:20:54;1.58;;;0.50;;
10687;SDS011;5392;42.688;23.298;2023-08-06T08:23:21;0.43;;;0.43;;
10687;SDS011;5392;42.688;23.298;2023-08-06T08:25:48;1.65;;;0.40;;
10687;SDS011;5392;42.688;23.298;2023-08-06T08:28:15;0.50;;;0.50;;
10687;SDS011;5392;42.688;23.298;2023-08-06T08:30:42;0.50;;;0.50;;
10687;SDS011;5392;42.688;23.298;2023-08-06T08:33:09;4.38;;;0.47;;
10687;SDS011;5392;42.688;23.298;2023-08-06T08:35:36;0.65;;;0.47;;
10687;SDS011;5392;42.688;23.298;2023-08-06T08:38:03;1.42;;;0.50;;
10687;SDS011;5392;42.688;23.298;2023-08-06T08:40:31;0.50;;;0.50;;
10687;SDS011;5392;42.688;23.298;2023-08-06T08:42:59;3.47;;;0.50;;
10687;SDS011;5392;42.688;23.298;2023-08-06T08:45:27;0.70;;;0.40;;
10687;SDS011;5392;42.688;23.298;2023-08-06T08:47:56;1.40;;;0.60;;
10687;SDS011;5392;42.688;23.298;2023-08-06T08:50:22;1.33;;;0.50;;
10687;SDS011;5392;42.688;23.298;2023-08-06T08:52:50;0.88;;;0.45;;
10687;SDS011;5392;42.688;23.298;2023-08-06T08:55:17;0.40;;;0.40;;
10687;SDS011;5392;42.688;23.298;2023-08-06T08:57:44;1.20;;;0.50;;
10687;SDS011;5392;42.688;23.298;2023-08-06T09:00:11;2.95;;;0.50;;
10687;SDS011;5392;42.688;23.298;2023-08-06T09:02:40;0.63;;;0.40;;
10687;SDS011;5392;42.688;23.298;2023-08-06T09:05:08;1.00;;;0.50;;
10687;SDS011;5392;42.688;23.298;2023-08-06T09:07:39;2.65;;;0.68;;
10687;SDS011;5392;42.688;23.298;2023-08-06T09:10:10;2.25;;;0.50;;
10687;SDS011;5392;42.688;23.298;2023-08-06T09:12:39;4.18;;;0.75;;
10687;SDS011;5392;42.688;23.298;2023-08-06T09:15:07;0.55;;;0.55;;
10687;SDS011;5392;42.688;23.298;2023-08-06T09:17:35;0.65;;;0.60;;
10687;SDS011;5392;42.688;23.298;2023-08-06T09:20:12;2.00;;;0.50;;
10687;SDS011;5392;42.688;23.298;2023-08-06T09:22:40;0.60;;;0.50;;
10687;SDS011;5392;42.688;23.298;2023-08-06T09:25:08;0.88;;;0.40;;
10687;SDS011;5392;42.688;23.298;2023-08-06T09:27:39;0.93;;;0.50;;
10687;SDS011;5392;42.688;23.298;2023-08-06T09:30:07;0.93;;;0.40;;
10687;SDS011;5392;42.688;23.298;2023-08-06T09:32:46;0.40;;;0.40;;
10687;SDS011;5392;42.688;23.298;2023-08-06T09:35:15;0.43;;;0.40;;
10687;SDS011;5392;42.688;23.298;2023-08-06T09:37:43;0.52;;;0.40;;
10687;SDS011;5392;42.688;23.298;2023-08-06T09:40:29;1.27;;;0.30;;
10687;SDS011;5392;42.688;23.298;2023-08-06T09:42:57;1.02;;;0.40;;
10687;SDS011;5392;42.688;23.298;2023-08-06T09:45:28;0.40;;;0.40;;
10687;SDS011;5392;42.688;23.298;2023-08-06T09:47:57;0.95;;;0.40;;
10687;SDS011;5392;42.688;23.298;2023-08-06T09:50:28;0.30;;;0.30;;
10687;SDS011;5392;42.688;23.298;2023-08-06T09:52:59;1.05;;;0.38;;
10687;SDS011;5392;42.688;23.298;2023-08-06T09:55:27;0.40;;;0.40;;
10687;SDS011;5392;42.688;23.298;2023-08-06T09:57:54;1.00;;;0.30;;
10687;SDS011;5392;42.688;23.298;2023-08-06T10:00:22;1.75;;;0.40;;
10687;SDS011;5392;42.688;23.298;2023-08-06T10:02:49;1.85;;;0.50;;
10687;SDS011;5392;42.688;23.298;2023-08-06T10:05:20;3.95;;;0.50;;
10687;SDS011;5392;42.688;23.298;2023-08-06T10:07:47;1.05;;;0.50;;
10687;SDS011;5392;42.688;23.298;2023-08-06T10:10:15;0.50;;;0.45;;
10687;SDS011;5392;42.688;23.298;2023-08-06T10:12:43;0.50;;;0.40;;
10687;SDS011;5392;42.688;23.298;2023-08-06T10:15:15;1.65;;;0.40;;
10687;SDS011;5392;42.688;23.298;2023-08-06T10:17:47;0.40;;;0.40;;
10687;SDS011;5392;42.688;23.298;2023-08-06T10:20:18;0.35;;;0.35;;
10687;SDS011;5392;42.688;23.298;2023-08-06T10:22:49;0.40;;;0.40;;
10687;SDS011;5392;42.688;23.298;2023-08-06T10:25:26;1.38;;;0.40;;
10687;SDS011;5392;42.688;23.298;2023-08-06T10:27:53;0.30;;;0.30;;
10687;SDS011;5392;42.688;23.298;2023-08-06T10:30:28;0.35;;;0.35;;
10687;SDS011;5392;42.688;23.298;2023-08-06T10:33:00;1.10;;;0.40;;
10687;SDS011;5392;42.688;23.298;2023-08-06T10:35:40;0.40;;;0.40;;
10687;SDS011;5392;42.688;23.298;2023-08-06T10:38:11;0.35;;;0.30;;
10687;SDS011;5392;42.688;23.298;2023-08-06T10:40:40;0.30;;;0.30;;
10687;SDS011;5392;42.688;23.298;2023-08-06T10:43:08;0.35;;;0.30;;
10687;SDS011;5392;42.688;23.298;2023-08-06T10:45:52;0.85;;;0.40;;
10687;SDS011;5392;42.688;23.298;2023-08-06T10:51:01;0.40;;;0.40;;
10687;SDS011;5392;42.688;23.298;2023-08-06T10:53:33;0.57;;;0.40;;
10687;SDS011;5392;42.688;23.298;2023-08-06T10:56:01;0.38;;;0.38;;
10687;SDS011;5392;42.688;23.298;2023-08-06T10:58:32;0.45;;;0.38;;
10687;SDS011;5392;42.688;23.298;2023-08-06T11:00:59;1.85;;;0.43;;
10687;SDS011;5392;42.688;23.298;2023-08-06T11:03:27;0.50;;;0.50;;
10687;SDS011;5392;42.688;23.298;2023-08-06T11:05:54;0.40;;;0.40;;
10687;SDS011;5392;42.688;23.298;2023-08-06T11:08:28;0.90;;;0.40;;
10687;SDS011;5392;42.688;23.298;2023-08-06T11:10:55;0.95;;;0.50;;
10687;SDS011;5392;42.688;23.298;2023-08-06T11:13:35;0.50;;;0.50;;
10687;SDS011;5392;42.688;23.298;2023-08-06T11:16:02;1.65;;;0.60;;
10687;SDS011;5392;42.688;23.298;2023-08-06T11:18:29;2.58;;;0.63;;
10687;SDS011;5392;42.688;23.298;2023-08-06T11:20:58;1.50;;;0.90;;
10687;SDS011;5392;42.688;23.298;2023-08-06T11:23:28;0.60;;;0.60;;
10687;SDS011;5392;42.688;23.298;2023-08-06T11:25:56;0.70;;;0.52;;
10687;SDS011;5392;42.688;23.298;2023-08-06T11:28:23;0.60;;;0.60;;
10687;SDS011;5392;42.688;23.298;2023-08-06T11:30:51;2.15;;;0.60;;
10687;SDS011;5392;42.688;23.298;2023-08-06T11:33:24;3.38;;;0.90;;
10687;SDS011;5392;42.688;23.298;2023-08-06T11:35:52;4.07;;;0.80;;
10687;SDS011;5392;42.688;23.298;2023-08-06T11:38:26;3.13;;;0.80;;
10687;SDS011;5392;42.688;23.298;2023-08-06T11:40:54;0.63;;;0.50;;
10687;SDS011;5392;42.688;23.298;2023-08-06T11:43:21;1.70;;;0.70;;
10687;SDS011;5392;42.688;23.298;2023-08-06T11:45:49;1.50;;;0.70;;
10687;SDS011;5392;42.688;23.298;2023-08-06T11:48:17;1.10;;;0.45;;
10687;SDS011;5392;42.688;23.298;2023-08-06T11:50:44;0.50;;;0.50;;
10687;SDS011;5392;42.688;23.298;2023-08-06T11:53:12;0.80;;;0.50;;
10687;SDS011;5392;42.688;23.298;2023-08-06T11:55:40;1.00;;;0.90;;
10687;SDS011;5392;42.688;23.298;2023-08-06T11:58:08;0.60;;;0.60;;
10687;SDS011;5392;42.688;23.298;2023-08-06T12:00:36;0.52;;;0.52;;
10687;SDS011;5392;42.688;23.298;2023-08-06T12:03:04;1.75;;;0.80;;
10687;SDS011;5392;42.688;23.298;2023-08-06T12:05:31;2.05;;;0.80;;
10687;SDS011;5392;42.688;23.298;2023-08-06T12:08:04;1.23;;;0.70;;
10687;SDS011;5392;42.688;23.298;2023-08-06T12:10:31;0.90;;;0.90;;
10687;SDS011;5392;42.688;23.298;2023-08-06T12:12:59;0.70;;;0.63;;
10687;SDS011;5392;42.688;23.298;2023-08-06T12:15:26;1.23;;;0.85;;
10687;SDS011;5392;42.688;23.298;2023-08-06T12:17:54;0.75;;;0.75;;
10687;SDS011;5392;42.688;23.298;2023-08-06T12:20:21;1.48;;;1.27;;
10687;SDS011;5392;42.688;23.298;2023-08-06T12:22:48;1.02;;;1.02;;
10687;SDS011;5392;42.688;23.298;2023-08-06T12:25:15;1.00;;;1.00;;
10687;SDS011;5392;42.688;23.298;2023-08-06T12:27:43;1.10;;;1.10;;
10687;SDS011;5392;42.688;23.298;2023-08-06T12:30:11;1.45;;;1.13;;
10687;SDS011;5392;42.688;23.298;2023-08-06T12:32:39;1.10;;;1.08;;
10687;SDS011;5392;42.688;23.298;2023-08-06T12:35:06;1.60;;;1.00;;
10687;SDS011;5392;42.688;23.298;2023-08-06T12:37:34;1.05;;;1.05;;
10687;SDS011;5392;42.688;23.298;2023-08-06T12:40:01;1.15;;;1.10;;
10687;SDS011;5392;42.688;23.298;2023-08-06T12:42:49;1.20;;;1.20;;
10687;SDS011;5392;42.688;23.298;2023-08-06T12:45:17;2.15;;;1.40;;
10687;SDS011;5392;42.688;23.298;2023-08-06T12:47:47;1.13;;;1.00;;
10687;SDS011;5392;42.688;23.298;2023-08-06T12:50:16;3.42;;;1.30;;
10687;SDS011;5392;42.688;23.298;2023-08-06T12:52:44;2.22;;;1.30;;
10687;SDS011;5392;42.688;23.298;2023-08-06T12:55:11;1.63;;;1.63;;
10687;SDS011;5392;42.688;23.298;2023-08-06T12:57:37;2.05;;;1.95;;
10687;SDS011;5392;42.688;23.298;2023-08-06T13:00:22;1.25;;;1.25;;
10687;SDS011;5392;42.688;23.298;2023-08-06T13:02:49;1.30;;;1.20;;
10687;SDS011;5392;42.688;23.298;2023-08-06T13:05:16;3.40;;;1.70;;
10687;SDS011;5392;42.688;23.298;2023-08-06T13:07:43;1.23;;;1.23;;
10687;SDS011;5392;42.688;23.298;2023-08-06T13:10:10;1.15;;;0.93;;
10687;SDS011;5392;42.688;23.298;2023-08-06T13:12:36;1.60;;;1.50;;
10687;SDS011;5392;42.688;23.298;2023-08-06T13:15:03;1.40;;;1.30;;
10687;SDS011;5392;42.688;23.298;2023-08-06T13:17:30;2.05;;;1.05;;
10687;SDS011;5392;42.688;23.298;2023-08-06T13:19:57;0.80;;;0.80;;
10687;SDS011;5392;42.688;23.298;2023-08-06T13:22:24;0.90;;;0.90;;
10687;SDS011;5392;42.688;23.298;2023-08-06T13:24:50;1.95;;;1.17;;
10687;SDS011;5392;42.688;23.298;2023-08-06T13:27:17;1.60;;;1.10;;
10687;SDS011;5392;42.688;23.298;2023-08-06T13:29:44;1.67;;;1.13;;
10687;SDS011;5392;42.688;23.298;2023-08-06T13:32:11;1.40;;;1.25;;
10687;SDS011;5392;42.688;23.298;2023-08-06T13:34:37;3.42;;;0.98;;
10687;SDS011;5392;42.688;23.298;2023-08-06T13:37:04;2.40;;;0.95;;
10687;SDS011;5392;42.688;23.298;2023-08-06T13:39:31;1.02;;;1.00;;
10687;SDS011;5392;42.688;23.298;2023-08-06T13:41:58;1.42;;;0.77;;
10687;SDS011;5392;42.688;23.298;2023-08-06T13:44:24;1.17;;;1.17;;
10687;SDS011;5392;42.688;23.298;2023-08-06T13:46:51;3.20;;;1.10;;
10687;SDS011;5392;42.688;23.298;2023-08-06T13:49:18;1.60;;;1.02;;
10687;SDS011;5392;42.688;23.298;2023-08-06T13:51:45;0.70;;;0.70;;
10687;SDS011;5392;42.688;23.298;2023-08-06T13:54:12;1.15;;;0.80;;
10687;SDS011;5392;42.688;23.298;2023-08-06T13:56:38;0.80;;;0.80;;
10687;SDS011;5392;42.688;23.298;2023-08-06T13:59:05;1.05;;;0.98;;
10687;SDS011;5392;42.688;23.298;2023-08-06T14:01:32;1.65;;;1.45;;
10687;SDS011;5392;42.688;23.298;2023-08-06T14:04:16;0.90;;;0.90;;
10687;SDS011;5392;42.688;23.298;2023-08-06T14:06:43;1.15;;;0.80;;
10687;SDS011;5392;42.688;23.298;2023-08-06T14:09:09;1.60;;;1.10;;
10687;SDS011;5392;42.688;23.298;2023-08-06T14:11:38;1.70;;;0.80;;
10687;SDS011;5392;42.688;23.298;2023-08-06T14:14:05;2.55;;;1.17;;
10687;SDS011;5392;42.688;23.298;2023-08-06T14:16:32;2.22;;;0.70;;
10687;SDS011;5392;42.688;23.298;2023-08-06T14:18:58;0.80;;;0.70;;
10687;SDS011;5392;42.688;23.298;2023-08-06T14:21:25;3.38;;;0.70;;
10687;SDS011;5392;42.688;23.298;2023-08-06T14:23:52;0.75;;;0.75;;
10687;SDS011;5392;42.688;23.298;2023-08-06T14:26:18;2.92;;;1.17;;
10687;SDS011;5392;42.688;23.298;2023-08-06T14:28:45;0.90;;;0.90;;
10687;SDS011;5392;42.688;23.298;2023-08-06T14:31:13;0.82;;;0.80;;
10687;SDS011;5392;42.688;23.298;2023-08-06T14:33:39;1.20;;;0.70;;
10687;SDS011;5392;42.688;23.298;2023-08-06T14:36:06;1.88;;;0.70;;
10687;SDS011;5392;42.688;23.298;2023-08-06T14:38:33;2.83;;;0.60;;
10687;SDS011;5392;42.688;23.298;2023-08-06T14:41:11;1.75;;;0.68;;
10687;SDS011;5392;42.688;23.298;2023-08-06T14:43:38;0.82;;;0.60;;
10687;SDS011;5392;42.688;23.298;2023-08-06T14:46:05;0.55;;;0.50;;
10687;SDS011;5392;42.688;23.298;2023-08-06T14:48:32;1.30;;;0.80;;
10687;SDS011;5392;42.688;23.298;2023-08-06T14:50:59;0.90;;;0.75;;
10687;SDS011;5392;42.688;23.298;2023-08-06T14:53:26;1.40;;;0.77;;
10687;SDS011;5392;42.688;23.298;2023-08-06T14:55:53;0.85;;;0.77;;
10687;SDS011;5392;42.688;23.298;2023-08-06T14:58:20;2.10;;;0.80;;
10687;SDS011;5392;42.688;23.298;2023-08-06T15:00:47;1.30;;;0.77;;
10687;SDS011;5392;42.688;23.298;2023-08-06T15:03:13;1.48;;;0.70;;
10687;SDS011;5392;42.688;23.298;2023-08-06T15:05:42;2.88;;;0.70;;